createdAt,value
2022-09-03T00:01:41.171Z,16.72
2022-09-03T00:04:20.908Z,16.73
2022-09-03T00:07:03.928Z,16.72
2022-09-03T00:09:41.492Z,16.72
2022-09-03T00:12:15.477Z,16.72
2022-09-03T00:14:51.760Z,16.71
2022-09-03T00:17:25.674Z,16.72
2022-09-03T00:20:00.502Z,16.71
2022-09-03T00:22:34.407Z,16.70
2022-09-03T00:25:11.768Z,16.69
2022-09-03T00:27:42.715Z,16.69
2022-09-03T00:30:17.041Z,16.68
2022-09-03T00:32:52.235Z,16.68
2022-09-03T00:35:28.654Z,16.69
2022-09-03T00:37:58.236Z,16.70
2022-09-03T00:41:01.946Z,16.70
2022-09-03T00:43:53.013Z,16.70
2022-09-03T00:46:32.850Z,16.69
2022-09-03T00:49:28.289Z,16.66
2022-09-03T00:52:13.281Z,16.66
2022-09-03T00:54:52.695Z,16.66
2022-09-03T00:57:44.297Z,16.63
2022-09-03T01:00:16.662Z,16.62
2022-09-03T01:03:08.644Z,16.60
2022-09-03T01:05:48.928Z,16.58
2022-09-03T01:08:53.248Z,16.55
2022-09-03T01:11:29.140Z,16.54
2022-09-03T01:14:06.469Z,16.53
2022-09-03T01:16:45.767Z,16.52
2022-09-03T01:19:53.356Z,16.51
2022-09-03T01:22:53.274Z,16.50
2022-09-03T01:25:37.410Z,16.51
2022-09-03T01:28:25.077Z,16.49
2022-09-03T01:31:03.998Z,16.51
2022-09-03T01:33:41.355Z,16.51
2022-09-03T01:36:22.024Z,16.49
2022-09-03T01:38:57.647Z,16.51
2022-09-03T01:42:00.494Z,16.49
2022-09-03T01:44:41.115Z,16.47
2022-09-03T01:47:23.586Z,16.46
2022-09-03T01:50:01.757Z,16.46
2022-09-03T01:52:44.915Z,16.45
2022-09-03T01:55:31.123Z,16.45
2022-09-03T01:58:03.880Z,16.46
2022-09-03T02:00:39.916Z,16.46
2022-09-03T02:03:10.608Z,16.45
2022-09-03T02:05:39.302Z,16.43
2022-09-03T02:08:11.805Z,16.42
2022-09-03T02:10:44.461Z,16.41
2022-09-03T02:13:17.195Z,16.39
2022-09-03T02:15:49.903Z,16.37
2022-09-03T02:18:21.930Z,16.36
2022-09-03T02:20:51.355Z,16.34
2022-09-03T02:23:19.738Z,16.34
2022-09-03T02:25:59.646Z,16.33
2022-09-03T02:28:29.253Z,16.30
2022-09-03T02:30:59.299Z,16.29
2022-09-03T02:33:28.573Z,16.28
2022-09-03T02:35:57.089Z,16.29
2022-09-03T02:38:27.470Z,16.26
2022-09-03T02:40:56.307Z,16.23
2022-09-03T02:43:32.111Z,16.21
2022-09-03T02:46:05.288Z,16.17
2022-09-03T02:48:33.742Z,16.14
2022-09-03T02:51:02.002Z,16.12
2022-09-03T02:53:43.072Z,16.08
2022-09-03T02:56:11.817Z,16.04
2022-09-03T02:58:40.212Z,16.00
2022-09-03T03:01:09.939Z,15.96
2022-09-03T03:03:38.293Z,15.93
2022-09-03T03:06:07.856Z,15.87
2022-09-03T03:08:36.173Z,15.84
2022-09-03T03:11:04.481Z,15.78
2022-09-03T03:13:33.488Z,15.73
2022-09-03T03:16:06.289Z,15.68
2022-09-03T03:18:36.132Z,15.63
2022-09-03T03:21:10.302Z,15.59
2022-09-03T03:23:39.857Z,15.55
2022-09-03T03:26:11.203Z,15.50
2022-09-03T03:28:42.020Z,15.46
2022-09-03T03:31:11.822Z,15.41
2022-09-03T03:33:42.621Z,15.36
2022-09-03T03:36:13.701Z,15.30
2022-09-03T03:38:43.254Z,15.26
2022-09-03T03:41:13.782Z,15.21
2022-09-03T03:43:42.343Z,15.18
2022-09-03T03:46:11.306Z,15.13
2022-09-03T03:48:41.837Z,15.12
2022-09-03T03:51:11.992Z,15.08
2022-09-03T03:53:40.897Z,15.04
2022-09-03T03:56:12.387Z,15.00
2022-09-03T03:58:42.545Z,14.94
2022-09-03T04:01:13.477Z,14.90
2022-09-03T04:03:44.366Z,14.84
2022-09-03T04:06:18.245Z,14.81
2022-09-03T04:08:49.612Z,14.78
2022-09-03T04:11:20.304Z,14.75
2022-09-03T04:13:49.767Z,14.69
2022-09-03T04:16:20.963Z,14.68
2022-09-03T04:18:51.715Z,14.66
2022-09-03T04:21:22.670Z,14.65
2022-09-03T04:23:52.472Z,14.64
2022-09-03T04:26:24.321Z,14.61
2022-09-03T04:28:52.813Z,14.59
2022-09-03T04:31:22.541Z,14.58
2022-09-03T04:33:51.333Z,14.54
2022-09-03T04:36:21.766Z,14.49
2022-09-03T04:38:53.472Z,14.46
2022-09-03T04:41:24.919Z,14.42
2022-09-03T04:43:54.176Z,14.40
2022-09-03T04:46:26.093Z,14.39
2022-09-03T04:48:57.024Z,14.35
2022-09-03T04:51:27.947Z,14.34
2022-09-03T04:53:58.810Z,14.32
2022-09-03T04:56:29.711Z,14.30
2022-09-03T04:58:59.827Z,14.27
2022-09-03T05:01:32.156Z,14.25
2022-09-03T05:04:02.782Z,14.20
2022-09-03T05:06:32.954Z,14.17
2022-09-03T05:09:02.387Z,14.15
2022-09-03T05:11:31.258Z,14.12
2022-09-03T05:14:01.766Z,14.10
2022-09-03T05:16:31.345Z,14.07
2022-09-03T05:19:03.684Z,14.06
2022-09-03T05:21:31.956Z,14.07
2022-09-03T05:24:02.209Z,14.07
2022-09-03T05:26:33.385Z,14.08
2022-09-03T05:29:04.342Z,14.11
2022-09-03T05:31:33.262Z,14.13
2022-09-03T05:34:06.011Z,14.17
2022-09-03T05:36:35.958Z,14.14
2022-09-03T05:39:05.686Z,14.19
2022-09-03T05:41:34.907Z,14.25
2022-09-03T05:44:04.142Z,14.29
2022-09-03T05:46:37.458Z,14.33
2022-09-03T05:49:08.785Z,14.39
2022-09-03T05:51:39.524Z,14.46
2022-09-03T05:54:09.283Z,14.52
2022-09-03T05:56:41.059Z,14.59
2022-09-03T05:59:11.249Z,14.67
2022-09-03T06:01:48.613Z,14.76
2022-09-03T06:04:21.137Z,14.86
2022-09-03T06:06:50.002Z,14.96
2022-09-03T06:09:23.229Z,15.07
2022-09-03T06:11:52.645Z,15.17
2022-09-03T06:14:22.095Z,15.25
2022-09-03T06:16:52.865Z,15.39
2022-09-03T06:19:22.830Z,15.52
2022-09-03T06:21:51.207Z,15.63
2022-09-03T06:24:23.312Z,15.72
2022-09-03T06:26:54.910Z,15.80
2022-09-03T06:29:23.205Z,15.89
2022-09-03T06:31:52.373Z,15.98
2022-09-03T06:34:23.281Z,16.06
2022-09-03T06:36:52.798Z,16.15
2022-09-03T06:39:23.120Z,16.37
2022-09-03T06:41:52.226Z,16.64
2022-09-03T06:44:20.486Z,16.87
2022-09-03T06:46:48.794Z,17.08
2022-09-03T06:49:18.094Z,17.29
2022-09-03T06:51:47.932Z,17.51
2022-09-03T06:54:16.512Z,17.68
2022-09-03T06:56:44.816Z,17.79
2022-09-03T06:59:16.205Z,17.80
2022-09-03T07:01:46.293Z,17.70
2022-09-03T07:04:16.854Z,17.56
2022-09-03T07:06:49.288Z,17.44
2022-09-03T07:09:19.104Z,17.39
2022-09-03T07:11:48.843Z,17.49
2022-09-03T07:14:19.499Z,17.76
2022-09-03T07:16:49.854Z,18.04
2022-09-03T07:19:18.762Z,18.35
2022-09-03T07:21:50.535Z,18.60
2022-09-03T07:24:22.006Z,18.84
2022-09-03T07:26:50.760Z,19.08
2022-09-03T07:29:21.586Z,19.37
2022-09-03T07:31:52.950Z,19.64
2022-09-03T07:34:26.682Z,19.88
2022-09-03T07:36:56.388Z,20.09
2022-09-03T07:39:24.769Z,20.22
2022-09-03T07:41:53.794Z,20.34
2022-09-03T07:44:24.662Z,20.43
2022-09-03T07:46:53.104Z,20.52
2022-09-03T07:49:22.479Z,20.57
2022-09-03T07:51:54.161Z,20.68
2022-09-03T07:54:26.333Z,20.77
2022-09-03T07:56:55.480Z,20.76
2022-09-03T07:59:24.795Z,20.66
2022-09-03T08:01:53.235Z,20.45
2022-09-03T08:04:22.656Z,20.22
2022-09-03T08:06:55.387Z,20.04
2022-09-03T08:09:25.283Z,19.88
2022-09-03T08:11:53.604Z,19.76
2022-09-03T08:14:22.107Z,19.79
2022-09-03T08:16:50.414Z,19.94
2022-09-03T08:19:19.955Z,20.19
2022-09-03T08:21:48.258Z,20.45
2022-09-03T08:24:20.935Z,20.72
2022-09-03T08:26:52.563Z,20.93
2022-09-03T08:29:23.301Z,21.09
2022-09-03T08:31:52.066Z,21.24
2022-09-03T08:34:21.382Z,21.37
2022-09-03T08:36:50.347Z,21.54
2022-09-03T08:39:19.133Z,21.72
2022-09-03T08:42:29.727Z,21.83
2022-09-03T08:45:00.997Z,21.92
2022-09-03T08:47:35.852Z,21.97
2022-09-03T08:50:12.670Z,21.96
2022-09-03T08:52:49.175Z,21.96
2022-09-03T08:55:24.724Z,21.97
2022-09-03T08:58:04.310Z,22.02
2022-09-03T09:00:49.182Z,22.13
2022-09-03T09:03:43.293Z,22.27
2022-09-03T09:06:24.835Z,22.42
2022-09-03T09:09:06.691Z,22.49
2022-09-03T09:11:49.720Z,22.50
2022-09-03T09:14:28.054Z,22.57
2022-09-03T09:17:05.664Z,22.58
2022-09-03T09:19:46.492Z,22.71
2022-09-03T09:22:25.332Z,22.84
2022-09-03T09:24:57.769Z,22.99
2022-09-03T09:27:26.508Z,23.08
2022-09-03T09:30:01.804Z,23.18
2022-09-03T09:32:32.024Z,23.28
2022-09-03T09:35:00.296Z,23.30
2022-09-03T09:37:29.066Z,23.29
2022-09-03T09:40:00.511Z,23.28
2022-09-03T09:42:31.055Z,23.25
2022-09-03T09:45:11.841Z,23.30
2022-09-03T09:47:41.390Z,23.40
2022-09-03T09:50:26.174Z,23.50
2022-09-03T09:53:05.401Z,23.62
2022-09-03T09:55:33.836Z,23.71
2022-09-03T09:58:14.475Z,23.83
2022-09-03T10:00:55.378Z,23.86
2022-09-03T10:03:23.855Z,23.83
2022-09-03T10:06:21.537Z,23.74
2022-09-03T10:08:50.054Z,23.65
2022-09-03T10:11:21.169Z,23.64
2022-09-03T10:13:50.986Z,23.63
2022-09-03T10:16:28.572Z,23.64
2022-09-03T10:19:07.423Z,23.65
2022-09-03T10:21:46.718Z,23.67
2022-09-03T10:24:39.462Z,23.72
2022-09-03T10:27:12.620Z,23.77
2022-09-03T10:29:42.482Z,23.84
2022-09-03T10:32:27.435Z,23.89
2022-09-03T10:35:20.464Z,23.96
2022-09-03T10:37:57.322Z,23.97
2022-09-03T10:40:36.064Z,23.95
2022-09-03T10:43:52.010Z,23.89
2022-09-03T10:46:27.959Z,23.73
2022-09-03T10:49:30.358Z,23.46
2022-09-03T10:52:10.620Z,23.41
2022-09-03T10:54:56.271Z,23.54
2022-09-03T10:57:43.075Z,23.73
2022-09-03T11:00:14.188Z,23.83
2022-09-03T11:03:31.642Z,23.85
2022-09-03T11:06:09.857Z,23.93
2022-09-03T11:08:44.195Z,23.92
2022-09-03T11:11:20.051Z,23.68
2022-09-03T11:13:54.978Z,23.45
2022-09-03T11:16:27.933Z,23.48
2022-09-03T11:19:02.312Z,23.48
2022-09-03T11:21:34.079Z,23.55
2022-09-03T11:24:14.153Z,23.48
2022-09-03T11:26:45.920Z,23.40
2022-09-03T11:29:21.794Z,23.18
2022-09-03T11:32:02.642Z,23.12
2022-09-03T11:34:34.306Z,23.15
2022-09-03T11:37:22.536Z,23.13
2022-09-03T11:40:00.859Z,23.17
2022-09-03T11:42:37.983Z,23.20
2022-09-03T11:45:24.788Z,23.19
2022-09-03T11:47:53.786Z,23.10
2022-09-03T11:50:26.228Z,23.06
2022-09-03T11:53:10.608Z,23.09
2022-09-03T11:55:55.247Z,23.03
2022-09-03T11:58:30.490Z,23.04
2022-09-03T12:01:01.434Z,23.13
2022-09-03T12:03:40.675Z,23.18
2022-09-03T12:07:03.298Z,23.32
2022-09-03T12:10:26.237Z,23.25
2022-09-03T12:13:13.657Z,23.43
2022-09-03T12:16:34.671Z,23.49
2022-09-03T12:19:10.280Z,23.48
2022-09-03T12:21:41.848Z,23.60
2022-09-03T12:24:14.444Z,23.62
2022-09-03T12:26:44.952Z,23.48
2022-09-03T12:29:27.865Z,23.47
2022-09-03T12:31:57.678Z,23.47
2022-09-03T12:34:27.442Z,23.56
2022-09-03T12:36:56.534Z,23.74
2022-09-03T12:42:25.016Z,23.62
2022-09-03T12:44:53.464Z,23.77
2022-09-03T12:47:39.830Z,23.89
2022-09-03T12:50:11.655Z,23.81
2022-09-03T12:52:46.268Z,23.58
2022-09-03T12:55:30.951Z,23.55
2022-09-03T12:58:11.433Z,23.67
2022-09-03T13:00:47.152Z,23.86
2022-09-03T13:03:21.132Z,23.97
2022-09-03T13:05:53.892Z,23.88
2022-09-03T13:08:27.545Z,23.63
2022-09-03T13:10:59.466Z,23.40
2022-09-03T13:13:32.756Z,23.42
2022-09-03T13:16:27.025Z,23.46
2022-09-03T13:19:02.369Z,23.33
2022-09-03T13:21:41.797Z,23.39
2022-09-03T13:24:30.059Z,23.47
2022-09-03T13:27:11.181Z,23.39
2022-09-03T13:29:57.377Z,23.20
2022-09-03T13:32:38.211Z,22.97
2022-09-03T13:35:14.121Z,22.77
2022-09-03T13:37:50.229Z,22.64
2022-09-03T13:40:27.427Z,22.57
2022-09-03T13:43:03.797Z,22.49
2022-09-03T13:45:40.439Z,22.44
2022-09-03T13:48:35.535Z,22.47
2022-09-03T13:51:13.144Z,22.54
2022-09-03T13:53:53.414Z,22.51
2022-09-03T13:56:37.896Z,22.45
2022-09-03T13:59:14.523Z,22.44
2022-09-03T14:02:08.505Z,22.43
2022-09-03T14:04:55.746Z,22.42
2022-09-03T14:07:35.815Z,22.46
2022-09-03T14:10:22.852Z,22.41
2022-09-03T14:13:03.474Z,22.30
2022-09-03T14:15:41.211Z,22.17
2022-09-03T14:18:24.774Z,22.12
2022-09-03T14:21:00.664Z,22.11
2022-09-03T14:23:39.571Z,22.11
2022-09-03T14:26:16.622Z,22.07
2022-09-03T14:28:49.779Z,22.09
2022-09-03T14:31:29.402Z,22.11
2022-09-03T14:34:09.867Z,22.14
2022-09-03T14:36:46.187Z,22.18
2022-09-03T14:39:34.253Z,22.15
2022-09-03T14:42:49.075Z,22.10
2022-09-03T14:45:51.390Z,22.06
2022-09-03T14:48:45.438Z,22.03
2022-09-03T14:51:42.988Z,22.05
2022-09-03T14:54:41.803Z,22.09
2022-09-03T14:57:38.840Z,22.13
2022-09-03T15:00:17.375Z,22.19
2022-09-03T15:03:26.921Z,22.19
2022-09-03T15:06:30.664Z,22.11
2022-09-03T15:09:23.851Z,22.01
2022-09-03T15:11:55.005Z,21.89
2022-09-03T15:14:30.932Z,21.83
2022-09-03T15:17:09.113Z,21.77
2022-09-03T15:19:55.280Z,21.72
2022-09-03T15:22:44.805Z,21.71
2022-09-03T15:25:24.742Z,21.63
2022-09-03T15:28:06.232Z,21.61
2022-09-03T15:30:42.257Z,21.58
2022-09-03T15:33:23.729Z,21.54
2022-09-03T15:36:19.340Z,21.48
2022-09-03T15:38:56.597Z,21.42
2022-09-03T15:41:45.559Z,21.42
2022-09-03T15:44:19.695Z,21.41
2022-09-03T15:46:58.926Z,21.40
2022-09-03T15:49:45.690Z,21.39
2022-09-03T15:52:31.776Z,21.34
2022-09-03T15:55:09.868Z,21.31
2022-09-03T15:57:48.679Z,21.27
2022-09-03T16:00:21.727Z,21.24
2022-09-03T16:03:00.820Z,21.22
2022-09-03T16:05:43.404Z,21.22
2022-09-03T16:08:21.973Z,21.22
2022-09-03T16:11:01.816Z,21.29
2022-09-03T16:14:07.091Z,21.34
2022-09-03T16:16:58.268Z,21.36
2022-09-03T16:19:33.275Z,21.35
2022-09-03T16:22:07.714Z,21.31
2022-09-03T16:24:47.016Z,21.26
2022-09-03T16:27:21.824Z,21.19
2022-09-03T16:30:11.036Z,21.12
2022-09-03T16:33:00.195Z,21.05
2022-09-03T16:35:43.007Z,21.01
2022-09-03T16:38:28.886Z,20.98
2022-09-03T16:41:05.026Z,20.96
2022-09-03T16:43:46.140Z,20.94
2022-09-03T16:46:27.163Z,20.92
2022-09-03T16:49:13.879Z,20.86
2022-09-03T16:51:55.575Z,20.82
2022-09-03T16:54:45.056Z,20.76
2022-09-03T16:57:36.247Z,20.72
2022-09-03T17:00:11.598Z,20.68
2022-09-03T17:03:13.684Z,20.63
2022-09-03T17:06:14.535Z,20.56
2022-09-03T17:08:59.884Z,20.53
2022-09-03T17:11:49.541Z,20.51
2022-09-03T17:15:00.258Z,20.49
2022-09-03T17:17:59.580Z,20.51
2022-09-03T17:20:51.959Z,20.51
2022-09-03T17:23:45.453Z,20.48
2022-09-03T17:26:29.269Z,20.46
2022-09-03T17:29:18.480Z,20.42
2022-09-03T17:31:55.170Z,20.36
2022-09-03T17:34:41.649Z,20.26
2022-09-03T17:37:23.992Z,20.16
2022-09-03T17:40:13.965Z,20.06
2022-09-03T17:42:53.292Z,19.95
2022-09-03T17:45:38.251Z,19.87
2022-09-03T17:48:40.783Z,19.78
2022-09-03T17:51:18.685Z,19.71
2022-09-03T17:53:55.029Z,19.64
2022-09-03T17:56:29.495Z,19.57
2022-09-03T17:59:10.039Z,19.51
2022-09-03T18:01:49.254Z,19.44
2022-09-03T18:04:32.890Z,19.35
2022-09-03T18:07:16.058Z,19.29
2022-09-03T18:09:57.204Z,19.20
2022-09-03T18:12:38.809Z,19.11
2022-09-03T18:15:16.186Z,19.04
2022-09-03T18:17:52.719Z,18.98
2022-09-03T18:20:41.014Z,18.92
2022-09-03T18:23:36.880Z,18.86
2022-09-03T18:26:29.143Z,18.77
2022-09-03T18:29:21.704Z,18.71
2022-09-03T18:32:07.502Z,18.65
2022-09-03T18:34:55.200Z,18.59
2022-09-03T18:37:44.469Z,18.52
2022-09-03T18:40:41.411Z,18.47
2022-09-03T18:43:35.789Z,18.42
2022-09-03T18:47:47.468Z,18.37
2022-09-03T18:49:50.957Z,18.30
2022-09-03T18:52:46.591Z,18.22
2022-09-03T18:55:42.254Z,18.20
2022-09-03T18:58:39.445Z,18.17
2022-09-03T19:01:34.507Z,18.13
2022-09-03T19:04:29.024Z,18.08
2022-09-03T19:07:26.664Z,18.06
2022-09-03T19:10:20.927Z,18.03
2022-09-03T19:13:33.285Z,18.01
2022-09-03T19:16:28.281Z,17.96
2022-09-03T19:20:00.146Z,17.90
2022-09-03T19:22:52.158Z,17.87
2022-09-03T19:25:39.044Z,17.85
2022-09-03T19:28:36.797Z,17.81
2022-09-03T19:32:03.016Z,17.79
2022-09-03T19:35:14.577Z,17.78
2022-09-03T19:38:12.631Z,17.74
2022-09-03T19:41:16.209Z,17.72
2022-09-03T19:44:18.553Z,17.68
2022-09-03T19:47:11.091Z,17.65
2022-09-03T19:50:09.862Z,17.62
2022-09-03T19:53:07.826Z,17.61
2022-09-03T19:56:02.842Z,17.59
2022-09-03T19:58:53.442Z,17.57
2022-09-03T20:01:44.723Z,17.54
2022-09-03T20:04:34.076Z,17.52
2022-09-03T20:07:23.646Z,17.50
2022-09-03T20:10:11.139Z,17.46
2022-09-03T20:12:50.417Z,17.43
2022-09-03T20:15:20.664Z,17.39
2022-09-03T20:18:03.123Z,17.34
2022-09-03T20:20:41.888Z,17.29
2022-09-03T20:23:20.870Z,17.25
2022-09-03T20:26:18.549Z,17.20
2022-09-03T20:29:27.551Z,17.14
2022-09-03T20:32:06.760Z,17.10
2022-09-03T20:34:49.607Z,17.06
2022-09-03T20:37:27.557Z,17.02
2022-09-03T20:40:15.773Z,16.99
2022-09-03T20:43:05.248Z,16.97
2022-09-03T20:45:43.709Z,16.96
2022-09-03T20:48:23.625Z,16.93
2022-09-03T20:51:02.371Z,16.90
2022-09-03T20:54:13.235Z,16.87
2022-09-03T20:56:59.398Z,16.85
2022-09-03T20:59:44.550Z,16.82
2022-09-03T21:02:30.444Z,16.81
2022-09-03T21:05:14.429Z,16.80
2022-09-03T21:08:00.386Z,16.77
2022-09-03T21:10:37.029Z,16.76
2022-09-03T21:13:17.062Z,16.74
2022-09-03T21:15:57.693Z,16.73
2022-09-03T21:18:39.146Z,16.70
2022-09-03T21:21:20.193Z,16.67
2022-09-03T21:24:03.879Z,16.64
2022-09-03T21:26:41.795Z,16.62
2022-09-03T21:29:22.424Z,16.61
2022-09-03T21:32:00.238Z,16.60
2022-09-03T21:34:34.135Z,16.58
2022-09-03T21:37:05.586Z,16.54
2022-09-03T21:39:43.902Z,16.51
2022-09-03T21:42:23.382Z,16.48
2022-09-03T21:45:00.997Z,16.46
2022-09-03T21:47:32.054Z,16.43
2022-09-03T21:50:13.090Z,16.42
2022-09-03T21:52:52.260Z,16.38
2022-09-03T21:55:31.585Z,16.37
2022-09-03T21:58:26.369Z,16.34
2022-09-03T22:01:00.448Z,16.32
2022-09-03T22:03:28.761Z,16.29
2022-09-03T22:06:04.794Z,16.28
2022-09-03T22:08:45.334Z,16.24
2022-09-03T22:11:22.655Z,16.22
2022-09-03T22:13:59.971Z,16.19
2022-09-03T22:16:35.529Z,16.18
2022-09-03T22:19:08.988Z,16.14
2022-09-03T22:21:45.590Z,16.12
2022-09-03T22:24:23.098Z,16.09
2022-09-03T22:27:03.869Z,16.04
2022-09-03T22:29:41.571Z,16.00
2022-09-03T22:32:43.338Z,15.98
2022-09-03T22:35:33.029Z,15.95
2022-09-03T22:38:27.823Z,15.94
2022-09-03T22:41:10.466Z,15.94
2022-09-03T22:43:43.987Z,15.91
2022-09-03T22:46:15.644Z,15.91
2022-09-03T22:49:11.488Z,15.87
2022-09-03T22:51:54.938Z,15.85
2022-09-03T22:54:40.186Z,15.83
2022-09-03T22:57:11.102Z,15.82
2022-09-03T22:59:46.279Z,15.79
2022-09-03T23:02:20.860Z,15.77
2022-09-03T23:05:03.998Z,15.75
2022-09-03T23:07:40.219Z,15.72
2022-09-03T23:10:23.043Z,15.67
2022-09-03T23:13:05.473Z,15.64
2022-09-03T23:15:39.092Z,15.63
2022-09-03T23:18:15.376Z,15.62
2022-09-03T23:20:49.115Z,15.59
2022-09-03T23:23:21.648Z,15.57
2022-09-03T23:25:55.638Z,15.55
2022-09-03T23:28:29.454Z,15.54
2022-09-03T23:31:12.640Z,15.52
2022-09-03T23:33:41.238Z,15.51
2022-09-03T23:36:44.646Z,15.51
2022-09-03T23:39:28.207Z,15.51
2022-09-03T23:42:12.636Z,15.50
2022-09-03T23:45:02.126Z,15.50
2022-09-03T23:47:44.940Z,15.51
2022-09-03T23:50:28.696Z,15.52
2022-09-03T23:53:24.134Z,15.53
2022-09-03T23:56:17.511Z,15.53
2022-09-03T23:59:02.344Z,15.53
